Vetka, Belarus
Current Conditions -  °F | °C
As of 1:00 AM on Wednesday 22 Oct 2014 (Local Time) from UMGG Reporting Station
Overcast Overcast  
Wind Chill: 38°   Ceiling: 1300
Heat Index: 45°   Visibility: 6mi
Dew Point: 41°   Wind: 13mph
Humidity: 87%   Direction: 30°NNE
Pressure: 29.71"   Gusts: NA
Location:  52.56°N, 31.18°E
Report Text: UMGG 212300Z 03006MPS 9999 OVC013 07/05 Q1006 R28/290050 NOSIG
Loading
Personal Weather Stations






























Interactive Weather Map
Tropical Storm Tracking
New forecast layout! Learn more

10-Day Weather Forecast

Advertisements
Track Severe Weather on mobile